This is the latest recevied weather packets stored in our database for station/object KB3GVC-13. If no packets are shown the sender has not sent any weather packets the latest 10 day(s).
| Time | Temp. | Humidity | Pressure | Rain* | Wind** | Luminosity | Snow |
|---|---|---|---|---|---|---|---|
| 1777581762 | 18.89° C | 50% | 1008.5 hPa | 0 mm | - | - | - |
| 1777581461 | 18.33° C | 52% | 1008.3 hPa | 0 mm | - | - | - |
| 1777581156 | 18.33° C | 52% | 1008.4 hPa | 0 mm | - | - | - |
| 1777580851 | 18.33° C | 52% | 1008.5 hPa | 0 mm | - | - | - |
| 1777580546 | 18.89° C | 52% | 1008.3 hPa | 0 mm | - | - | - |
| 1777580242 | 19.44° C | 50% | 1008 hPa | 0 mm | - | - | - |
| 1777579940 | 19.44° C | 49% | 1008 hPa | 0 mm | - | - | - |
| 1777579634 | 20° C | 50% | 1008.3 hPa | 0 mm | - | - | - |
| 1777579333 | 20° C | 49% | 1008 hPa | 0 mm | - | - | - |
| 1777579029 | 18.89° C | 53% | 1008.2 hPa | 0 mm | - | - | - |
| 1777578729 | 18.33° C | 54% | 1008 hPa | 0 mm | - | - | - |
| 1777578429 | 18.33° C | 54% | 1007.9 hPa | 0 mm | - | - | - |
| 1777578125 | 18.89° C | 54% | 1008.1 hPa | 0 mm | - | - | - |
| 1777577821 | 19.44° C | 51% | 1008.2 hPa | 0 mm | - | - | - |
| 1777577516 | 18.33° C | 56% | 1008.3 hPa | 0 mm | - | - | - |
| 1777577214 | 18.33° C | 56% | 1008.3 hPa | 0 mm | - | - | - |
| 1777576909 | 19.44° C | 58% | 1008.5 hPa | 0 mm | - | - | - |
| 1777576604 | 19.44° C | 55% | 1008 hPa | 0 mm | - | - | - |
| 1777576300 | 18.33° C | 55% | 1008.1 hPa | 0 mm | - | - | - |
| 1777575997 | 19.44° C | 54% | 1008.1 hPa | 0 mm | - | - | - |
| 1777575693 | 17.78° C | 57% | 1008.3 hPa | 0 mm | - | - | - |
| 1777575388 | 17.78° C | 59% | 1008.2 hPa | 0 mm | - | - | - |
| 1777575085 | 17.78° C | 58% | 1008.1 hPa | 0 mm | - | - | - |
| 1777574781 | 18.33° C | 55% | 1008.1 hPa | 0 mm | - | - | - |
| 1777574479 | 19.44° C | 55% | 1008.2 hPa | 0 mm | - | - | - |
* Rain latest hour (hover to see other rain measurements)
** Current wind speed in m/s (hover to see current wind gust speed)